sensor_id;sensor_type;location;lat;lon;timestamp;P1;durP1;ratioP1;P2;durP2;ratioP2
52112;SDS011;38109;49.488;31.988;2023-04-12T15:22:39;3.72;;;2.33;;
52112;SDS011;38109;49.488;31.988;2023-04-12T15:25:08;3.78;;;2.60;;
52112;SDS011;38109;49.488;31.988;2023-04-12T15:27:35;3.90;;;2.72;;
52112;SDS011;38109;49.488;31.988;2023-04-12T15:30:02;4.30;;;3.05;;
52112;SDS011;38109;49.488;31.988;2023-04-12T15:32:36;4.63;;;2.60;;
52112;SDS011;38109;49.488;31.988;2023-04-12T15:35:02;3.22;;;2.22;;
52112;SDS011;38109;49.488;31.988;2023-04-12T15:37:32;5.53;;;2.95;;
52112;SDS011;38109;49.488;31.988;2023-04-12T15:40:01;4.32;;;2.60;;
52112;SDS011;38109;49.488;31.988;2023-04-12T15:42:38;6.30;;;2.78;;
52112;SDS011;38109;49.488;31.988;2023-04-12T15:45:05;4.88;;;2.83;;
52112;SDS011;38109;49.488;31.988;2023-04-12T15:47:32;2.72;;;2.17;;
52112;SDS011;38109;49.488;31.988;2023-04-12T15:49:57;3.20;;;2.38;;
52112;SDS011;38109;49.488;31.988;2023-04-12T15:52:25;3.42;;;2.05;;
52112;SDS011;38109;49.488;31.988;2023-04-12T15:54:51;2.42;;;1.80;;
52112;SDS011;38109;49.488;31.988;2023-04-12T15:57:16;2.40;;;2.15;;
52112;SDS011;38109;49.488;31.988;2023-04-12T15:59:42;2.38;;;2.00;;
52112;SDS011;38109;49.488;31.988;2023-04-12T16:02:08;2.15;;;1.73;;
52112;SDS011;38109;49.488;31.988;2023-04-12T16:04:43;2.00;;;1.80;;
52112;SDS011;38109;49.488;31.988;2023-04-12T16:07:09;3.40;;;2.22;;
52112;SDS011;38109;49.488;31.988;2023-04-12T16:09:37;1.80;;;1.70;;
52112;SDS011;38109;49.488;31.988;2023-04-12T16:12:03;2.00;;;1.58;;
52112;SDS011;38109;49.488;31.988;2023-04-12T16:14:29;1.80;;;1.50;;
52112;SDS011;38109;49.488;31.988;2023-04-12T16:16:56;1.90;;;1.60;;
52112;SDS011;38109;49.488;31.988;2023-04-12T16:19:23;3.03;;;2.63;;
52112;SDS011;38109;49.488;31.988;2023-04-12T16:21:48;3.00;;;2.38;;
52112;SDS011;38109;49.488;31.988;2023-04-12T16:24:15;2.63;;;2.20;;
52112;SDS011;38109;49.488;31.988;2023-04-12T16:26:41;2.33;;;1.90;;
52112;SDS011;38109;49.488;31.988;2023-04-12T16:29:09;2.13;;;1.70;;
52112;SDS011;38109;49.488;31.988;2023-04-12T16:31:35;1.60;;;1.50;;
52112;SDS011;38109;49.488;31.988;2023-04-12T16:34:02;1.92;;;1.80;;
52112;SDS011;38109;49.488;31.988;2023-04-12T16:36:28;1.60;;;1.50;;
52112;SDS011;38109;49.488;31.988;2023-04-12T16:38:56;1.95;;;1.77;;
52112;SDS011;38109;49.488;31.988;2023-04-12T16:41:23;1.67;;;1.58;;
52112;SDS011;38109;49.488;31.988;2023-04-12T16:43:50;3.03;;;1.80;;
52112;SDS011;38109;49.488;31.988;2023-04-12T16:46:17;2.00;;;1.80;;
52112;SDS011;38109;49.488;31.988;2023-04-12T16:48:45;2.33;;;2.08;;
52112;SDS011;38109;49.488;31.988;2023-04-12T16:51:11;1.95;;;1.80;;
52112;SDS011;38109;49.488;31.988;2023-04-12T16:53:37;3.08;;;2.10;;
52112;SDS011;38109;49.488;31.988;2023-04-12T16:56:02;3.47;;;2.58;;
52112;SDS011;38109;49.488;31.988;2023-04-12T16:58:29;3.05;;;2.40;;
52112;SDS011;38109;49.488;31.988;2023-04-12T17:00:56;3.65;;;2.53;;
52112;SDS011;38109;49.488;31.988;2023-04-12T17:03:22;2.78;;;2.47;;
52112;SDS011;38109;49.488;31.988;2023-04-12T17:05:49;2.38;;;2.00;;
52112;SDS011;38109;49.488;31.988;2023-04-12T17:08:15;2.92;;;2.63;;
52112;SDS011;38109;49.488;31.988;2023-04-12T17:10:40;2.60;;;2.38;;
52112;SDS011;38109;49.488;31.988;2023-04-12T17:13:06;2.92;;;2.28;;
52112;SDS011;38109;49.488;31.988;2023-04-12T17:15:33;2.92;;;2.30;;
52112;SDS011;38109;49.488;31.988;2023-04-12T17:17:59;3.35;;;2.67;;
52112;SDS011;38109;49.488;31.988;2023-04-12T17:20:33;4.78;;;2.90;;
52112;SDS011;38109;49.488;31.988;2023-04-12T17:23:00;3.83;;;2.63;;
52112;SDS011;38109;49.488;31.988;2023-04-12T17:25:26;3.30;;;2.70;;
52112;SDS011;38109;49.488;31.988;2023-04-12T17:27:54;4.00;;;2.60;;
52112;SDS011;38109;49.488;31.988;2023-04-12T17:30:24;3.28;;;2.78;;
52112;SDS011;38109;49.488;31.988;2023-04-12T17:32:50;3.00;;;2.50;;
52112;SDS011;38109;49.488;31.988;2023-04-12T17:35:17;4.30;;;3.15;;
52112;SDS011;38109;49.488;31.988;2023-04-12T17:37:43;3.50;;;2.70;;
52112;SDS011;38109;49.488;31.988;2023-04-12T17:40:10;4.05;;;2.97;;
52112;SDS011;38109;49.488;31.988;2023-04-12T17:42:36;3.00;;;2.70;;
52112;SDS011;38109;49.488;31.988;2023-04-12T17:45:03;3.75;;;2.78;;
52112;SDS011;38109;49.488;31.988;2023-04-12T17:47:30;3.35;;;2.58;;
52112;SDS011;38109;49.488;31.988;2023-04-12T17:49:56;4.20;;;3.20;;
52112;SDS011;38109;49.488;31.988;2023-04-12T17:52:22;3.90;;;3.17;;
52112;SDS011;38109;49.488;31.988;2023-04-12T17:54:48;4.75;;;3.25;;
52112;SDS011;38109;49.488;31.988;2023-04-12T17:57:15;4.22;;;3.22;;
52112;SDS011;38109;49.488;31.988;2023-04-12T17:59:40;3.53;;;2.85;;
52112;SDS011;38109;49.488;31.988;2023-04-12T18:02:06;3.78;;;2.90;;
52112;SDS011;38109;49.488;31.988;2023-04-12T18:04:34;4.45;;;3.13;;
52112;SDS011;38109;49.488;31.988;2023-04-12T18:07:00;4.57;;;3.03;;
52112;SDS011;38109;49.488;31.988;2023-04-12T18:09:28;4.97;;;3.33;;
52112;SDS011;38109;49.488;31.988;2023-04-12T18:11:54;5.13;;;3.47;;
52112;SDS011;38109;49.488;31.988;2023-04-12T18:14:21;4.05;;;3.17;;
52112;SDS011;38109;49.488;31.988;2023-04-12T18:16:47;6.28;;;3.25;;
52112;SDS011;38109;49.488;31.988;2023-04-12T18:19:14;3.92;;;3.05;;
52112;SDS011;38109;49.488;31.988;2023-04-12T18:21:43;3.80;;;3.08;;
52112;SDS011;38109;49.488;31.988;2023-04-12T18:24:12;4.30;;;3.30;;
52112;SDS011;38109;49.488;31.988;2023-04-12T18:26:39;3.95;;;3.47;;
52112;SDS011;38109;49.488;31.988;2023-04-12T18:29:05;4.68;;;3.60;;
52112;SDS011;38109;49.488;31.988;2023-04-12T18:31:31;4.57;;;3.20;;
52112;SDS011;38109;49.488;31.988;2023-04-12T18:33:56;4.95;;;3.92;;
52112;SDS011;38109;49.488;31.988;2023-04-12T18:36:22;5.93;;;3.47;;
52112;SDS011;38109;49.488;31.988;2023-04-12T18:38:51;4.28;;;3.17;;
52112;SDS011;38109;49.488;31.988;2023-04-12T18:41:16;4.55;;;3.50;;
52112;SDS011;38109;49.488;31.988;2023-04-12T18:43:42;5.53;;;3.88;;
52112;SDS011;38109;49.488;31.988;2023-04-12T18:46:15;5.68;;;3.63;;
52112;SDS011;38109;49.488;31.988;2023-04-12T18:48:42;5.05;;;3.63;;
52112;SDS011;38109;49.488;31.988;2023-04-12T18:51:09;3.55;;;3.17;;
52112;SDS011;38109;49.488;31.988;2023-04-12T18:53:36;3.80;;;3.15;;
52112;SDS011;38109;49.488;31.988;2023-04-12T18:56:06;3.90;;;2.90;;
52112;SDS011;38109;49.488;31.988;2023-04-12T19:01:01;3.25;;;2.55;;
52112;SDS011;38109;49.488;31.988;2023-04-12T19:03:27;3.90;;;2.97;;
52112;SDS011;38109;49.488;31.988;2023-04-12T19:05:53;3.15;;;2.45;;
52112;SDS011;38109;49.488;31.988;2023-04-12T19:08:19;6.20;;;3.10;;
52112;SDS011;38109;49.488;31.988;2023-04-12T19:10:45;3.85;;;2.78;;
52112;SDS011;38109;49.488;31.988;2023-04-12T19:13:11;3.30;;;2.67;;
52112;SDS011;38109;49.488;31.988;2023-04-12T19:15:37;3.75;;;2.90;;
52112;SDS011;38109;49.488;31.988;2023-04-12T19:18:02;3.55;;;2.72;;
52112;SDS011;38109;49.488;31.988;2023-04-12T19:20:28;4.07;;;3.00;;
52112;SDS011;38109;49.488;31.988;2023-04-12T19:22:54;4.28;;;2.50;;
52112;SDS011;38109;49.488;31.988;2023-04-12T19:25:20;3.50;;;2.78;;
52112;SDS011;38109;49.488;31.988;2023-04-12T19:27:45;3.88;;;3.05;;
52112;SDS011;38109;49.488;31.988;2023-04-12T19:30:11;3.13;;;2.67;;
52112;SDS011;38109;49.488;31.988;2023-04-12T19:32:38;3.78;;;2.92;;
52112;SDS011;38109;49.488;31.988;2023-04-12T19:35:05;4.00;;;2.95;;
52112;SDS011;38109;49.488;31.988;2023-04-12T19:37:34;3.13;;;2.35;;
52112;SDS011;38109;49.488;31.988;2023-04-12T19:40:00;3.58;;;2.63;;
52112;SDS011;38109;49.488;31.988;2023-04-12T19:42:26;3.90;;;2.92;;
52112;SDS011;38109;49.488;31.988;2023-04-12T19:44:52;3.63;;;2.78;;
52112;SDS011;38109;49.488;31.988;2023-04-12T19:47:17;3.35;;;2.50;;
52112;SDS011;38109;49.488;31.988;2023-04-12T19:49:43;4.13;;;3.22;;
52112;SDS011;38109;49.488;31.988;2023-04-12T19:52:09;3.53;;;2.63;;
52112;SDS011;38109;49.488;31.988;2023-04-12T19:54:35;3.42;;;2.75;;
52112;SDS011;38109;49.488;31.988;2023-04-12T19:57:01;3.47;;;2.88;;
52112;SDS011;38109;49.488;31.988;2023-04-12T19:59:30;2.53;;;2.30;;
52112;SDS011;38109;49.488;31.988;2023-04-12T20:01:58;3.03;;;2.63;;
52112;SDS011;38109;49.488;31.988;2023-04-12T20:04:25;3.55;;;2.70;;
52112;SDS011;38109;49.488;31.988;2023-04-12T20:06:51;3.50;;;2.90;;
52112;SDS011;38109;49.488;31.988;2023-04-12T20:09:17;4.03;;;2.60;;
52112;SDS011;38109;49.488;31.988;2023-04-12T20:11:43;3.13;;;2.50;;
52112;SDS011;38109;49.488;31.988;2023-04-12T20:14:10;3.22;;;2.47;;
52112;SDS011;38109;49.488;31.988;2023-04-12T20:16:35;3.05;;;2.60;;
52112;SDS011;38109;49.488;31.988;2023-04-12T20:19:05;2.30;;;2.10;;
52112;SDS011;38109;49.488;31.988;2023-04-12T20:21:31;2.90;;;2.60;;
52112;SDS011;38109;49.488;31.988;2023-04-12T20:23:58;2.65;;;2.20;;
52112;SDS011;38109;49.488;31.988;2023-04-12T20:26:24;3.03;;;2.28;;
52112;SDS011;38109;49.488;31.988;2023-04-12T20:28:52;3.30;;;2.35;;
52112;SDS011;38109;49.488;31.988;2023-04-12T20:31:21;3.17;;;2.15;;
52112;SDS011;38109;49.488;31.988;2023-04-12T20:33:46;4.32;;;2.38;;
52112;SDS011;38109;49.488;31.988;2023-04-12T20:36:12;2.22;;;2.03;;
52112;SDS011;38109;49.488;31.988;2023-04-12T20:38:39;2.05;;;1.92;;
52112;SDS011;38109;49.488;31.988;2023-04-12T20:41:06;4.93;;;2.60;;
52112;SDS011;38109;49.488;31.988;2023-04-12T20:43:39;2.15;;;1.90;;
52112;SDS011;38109;49.488;31.988;2023-04-12T20:46:10;2.92;;;1.95;;
52112;SDS011;38109;49.488;31.988;2023-04-12T20:48:45;4.38;;;2.90;;
52112;SDS011;38109;49.488;31.988;2023-04-12T20:51:13;3.65;;;2.55;;
52112;SDS011;38109;49.488;31.988;2023-04-12T20:53:40;3.95;;;2.60;;
52112;SDS011;38109;49.488;31.988;2023-04-12T20:56:12;5.53;;;2.60;;
52112;SDS011;38109;49.488;31.988;2023-04-12T20:58:38;3.90;;;2.42;;
52112;SDS011;38109;49.488;31.988;2023-04-12T21:01:04;3.05;;;2.25;;
52112;SDS011;38109;49.488;31.988;2023-04-12T21:03:31;5.00;;;2.45;;
52112;SDS011;38109;49.488;31.988;2023-04-12T21:05:59;3.95;;;2.58;;
52112;SDS011;38109;49.488;31.988;2023-04-12T21:08:29;2.42;;;2.22;;
52112;SDS011;38109;49.488;31.988;2023-04-12T21:10:57;3.05;;;2.22;;
52112;SDS011;38109;49.488;31.988;2023-04-12T21:13:28;3.00;;;2.33;;
52112;SDS011;38109;49.488;31.988;2023-04-12T21:15:55;3.97;;;3.22;;
52112;SDS011;38109;49.488;31.988;2023-04-12T21:18:22;6.00;;;3.92;;
52112;SDS011;38109;49.488;31.988;2023-04-12T21:20:49;3.88;;;2.80;;
52112;SDS011;38109;49.488;31.988;2023-04-12T21:23:16;3.38;;;2.50;;
52112;SDS011;38109;49.488;31.988;2023-04-12T21:25:42;2.90;;;2.28;;
52112;SDS011;38109;49.488;31.988;2023-04-12T21:28:13;2.50;;;2.30;;
52112;SDS011;38109;49.488;31.988;2023-04-12T21:30:39;3.13;;;2.30;;
52112;SDS011;38109;49.488;31.988;2023-04-12T21:33:08;4.78;;;2.17;;
52112;SDS011;38109;49.488;31.988;2023-04-12T21:35:36;2.58;;;2.17;;
52112;SDS011;38109;49.488;31.988;2023-04-12T21:38:02;1.98;;;1.75;;
52112;SDS011;38109;49.488;31.988;2023-04-12T21:40:27;2.45;;;2.08;;
52112;SDS011;38109;49.488;31.988;2023-04-12T21:42:53;3.28;;;2.25;;
52112;SDS011;38109;49.488;31.988;2023-04-12T21:45:19;2.03;;;1.83;;
52112;SDS011;38109;49.488;31.988;2023-04-12T21:47:48;3.50;;;2.20;;
52112;SDS011;38109;49.488;31.988;2023-04-12T21:50:13;2.60;;;2.17;;
52112;SDS011;38109;49.488;31.988;2023-04-12T21:52:39;2.67;;;2.35;;
52112;SDS011;38109;49.488;31.988;2023-04-12T21:55:07;2.38;;;1.98;;
52112;SDS011;38109;49.488;31.988;2023-04-12T21:57:33;2.83;;;2.28;;
52112;SDS011;38109;49.488;31.988;2023-04-12T21:59:59;3.58;;;2.35;;
52112;SDS011;38109;49.488;31.988;2023-04-12T22:02:26;2.67;;;2.20;;
52112;SDS011;38109;49.488;31.988;2023-04-12T22:04:52;3.03;;;2.40;;
52112;SDS011;38109;49.488;31.988;2023-04-12T22:07:18;4.25;;;2.83;;
52112;SDS011;38109;49.488;31.988;2023-04-12T22:09:44;2.63;;;2.03;;
52112;SDS011;38109;49.488;31.988;2023-04-12T22:12:10;3.30;;;2.15;;
52112;SDS011;38109;49.488;31.988;2023-04-12T22:14:38;2.63;;;2.25;;
52112;SDS011;38109;49.488;31.988;2023-04-12T22:17:14;3.05;;;2.47;;
52112;SDS011;38109;49.488;31.988;2023-04-12T22:19:44;2.92;;;2.40;;
52112;SDS011;38109;49.488;31.988;2023-04-12T22:22:10;3.38;;;2.67;;
